sensor_id;sensor_type;location;lat;lon;timestamp;pressure;altitude;pressure_sealevel;temperature;humidity
59168;BME280;70412;55.048;73.268;2023-07-31T00:02:02;99574.69;;;14.14;100.00
59168;BME280;70412;55.048;73.268;2023-07-31T00:05:04;99576.56;;;14.39;100.00
59168;BME280;70412;55.048;73.268;2023-07-31T00:08:07;99585.72;;;13.99;100.00
59168;BME280;70412;55.048;73.268;2023-07-31T00:11:09;99585.06;;;13.88;100.00
59168;BME280;70412;55.048;73.268;2023-07-31T00:14:12;99585.66;;;14.09;100.00
59168;BME280;70412;55.048;73.268;2023-07-31T00:17:16;99585.16;;;14.41;100.00
59168;BME280;70412;55.048;73.268;2023-07-31T00:20:19;99577.22;;;14.69;100.00
59168;BME280;70412;55.048;73.268;2023-07-31T00:23:22;99585.31;;;14.57;100.00
59168;BME280;70412;55.048;73.268;2023-07-31T00:26:24;99586.63;;;14.53;100.00
59168;BME280;70412;55.048;73.268;2023-07-31T00:29:27;99584.16;;;14.70;100.00
59168;BME280;70412;55.048;73.268;2023-07-31T00:32:29;99587.91;;;14.85;100.00
59168;BME280;70412;55.048;73.268;2023-07-31T00:35:32;99579.16;;;15.02;100.00
59168;BME280;70412;55.048;73.268;2023-07-31T00:38:34;99580.50;;;15.06;100.00
59168;BME280;70412;55.048;73.268;2023-07-31T00:41:37;99587.28;;;15.35;100.00
59168;BME280;70412;55.048;73.268;2023-07-31T00:44:39;99587.09;;;15.62;100.00
59168;BME280;70412;55.048;73.268;2023-07-31T00:47:42;99570.28;;;15.63;100.00
59168;BME280;70412;55.048;73.268;2023-07-31T00:50:44;99586.75;;;15.83;100.00
59168;BME280;70412;55.048;73.268;2023-07-31T00:53:47;99586.66;;;16.01;100.00
59168;BME280;70412;55.048;73.268;2023-07-31T00:56:50;99573.19;;;16.44;100.00
59168;BME280;70412;55.048;73.268;2023-07-31T00:59:55;99564.59;;;16.42;100.00
59168;BME280;70412;55.048;73.268;2023-07-31T01:02:57;99566.47;;;17.15;100.00
59168;BME280;70412;55.048;73.268;2023-07-31T01:12:24;99586.06;;;18.09;100.00
59168;BME280;70412;55.048;73.268;2023-07-31T01:15:29;99576.81;;;18.36;100.00
59168;BME280;70412;55.048;73.268;2023-07-31T01:18:31;99569.84;;;17.56;100.00
59168;BME280;70412;55.048;73.268;2023-07-31T01:28:56;99573.28;;;18.12;100.00
59168;BME280;70412;55.048;73.268;2023-07-31T01:31:59;99568.59;;;18.22;100.00
59168;BME280;70412;55.048;73.268;2023-07-31T01:35:05;99548.75;;;18.10;100.00
59168;BME280;70412;55.048;73.268;2023-07-31T01:38:08;99570.00;;;18.87;100.00
59168;BME280;70412;55.048;73.268;2023-07-31T01:41:11;99571.66;;;19.40;98.68
59168;BME280;70412;55.048;73.268;2023-07-31T01:44:13;99563.72;;;19.55;99.30
59168;BME280;70412;55.048;73.268;2023-07-31T01:47:18;99565.56;;;20.20;96.78
59168;BME280;70412;55.048;73.268;2023-07-31T01:50:21;99571.88;;;19.68;96.77
59168;BME280;70412;55.048;73.268;2023-07-31T01:53:23;99576.13;;;19.99;96.79
59168;BME280;70412;55.048;73.268;2023-07-31T01:56:26;99576.25;;;19.91;94.93
59168;BME280;70412;55.048;73.268;2023-07-31T01:59:28;99580.50;;;19.85;95.32
59168;BME280;70412;55.048;73.268;2023-07-31T02:02:31;99563.69;;;19.85;94.47
59168;BME280;70412;55.048;73.268;2023-07-31T02:05:34;99568.84;;;19.71;95.08
59168;BME280;70412;55.048;73.268;2023-07-31T02:08:36;99577.09;;;20.85;91.92
59168;BME280;70412;55.048;73.268;2023-07-31T02:11:39;99571.25;;;19.29;96.31
59168;BME280;70412;55.048;73.268;2023-07-31T02:14:42;99579.47;;;19.42;97.39
59168;BME280;70412;55.048;73.268;2023-07-31T02:17:46;99560.22;;;20.35;93.81
59168;BME280;70412;55.048;73.268;2023-07-31T02:20:52;99575.69;;;21.10;91.93
59168;BME280;70412;55.048;73.268;2023-07-31T02:23:54;99573.75;;;21.26;89.59
59168;BME280;70412;55.048;73.268;2023-07-31T02:26:57;99564.28;;;20.74;91.66
59168;BME280;70412;55.048;73.268;2023-07-31T02:30:01;99566.63;;;20.62;90.74
59168;BME280;70412;55.048;73.268;2023-07-31T02:33:04;99541.16;;;20.81;90.77
59168;BME280;70412;55.048;73.268;2023-07-31T02:36:07;99553.75;;;21.43;88.80
59168;BME280;70412;55.048;73.268;2023-07-31T02:39:10;99562.97;;;19.76;93.75
59168;BME280;70412;55.048;73.268;2023-07-31T02:42:13;99561.47;;;20.82;91.42
59168;BME280;70412;55.048;73.268;2023-07-31T02:45:16;99551.44;;;21.33;88.27
59168;BME280;70412;55.048;73.268;2023-07-31T02:48:18;99551.31;;;20.49;90.04
59168;BME280;70412;55.048;73.268;2023-07-31T02:51:22;99556.25;;;20.95;89.13
59168;BME280;70412;55.048;73.268;2023-07-31T02:54:25;99554.25;;;21.53;87.46
59168;BME280;70412;55.048;73.268;2023-07-31T02:57:27;99560.31;;;21.81;86.64
59168;BME280;70412;55.048;73.268;2023-07-31T03:00:30;99558.66;;;21.80;83.80
59168;BME280;70412;55.048;73.268;2023-07-31T03:03:32;99558.28;;;21.49;85.04
59168;BME280;70412;55.048;73.268;2023-07-31T03:06:35;99565.50;;;20.99;88.77
59168;BME280;70412;55.048;73.268;2023-07-31T03:09:38;99551.25;;;21.35;86.79
59168;BME280;70412;55.048;73.268;2023-07-31T03:12:41;99561.75;;;21.15;88.46
59168;BME280;70412;55.048;73.268;2023-07-31T03:15:43;99548.09;;;21.25;84.64
59168;BME280;70412;55.048;73.268;2023-07-31T03:18:47;99553.84;;;22.58;81.43
59168;BME280;70412;55.048;73.268;2023-07-31T03:21:50;99545.56;;;22.40;80.61
59168;BME280;70412;55.048;73.268;2023-07-31T03:24:52;99567.75;;;22.47;79.80
59168;BME280;70412;55.048;73.268;2023-07-31T03:27:55;99570.63;;;22.46;79.49
59168;BME280;70412;55.048;73.268;2023-07-31T03:30:57;99563.34;;;22.13;80.36
59168;BME280;70412;55.048;73.268;2023-07-31T03:34:00;99543.25;;;21.76;80.95
59168;BME280;70412;55.048;73.268;2023-07-31T03:37:04;99550.03;;;22.26;79.91
59168;BME280;70412;55.048;73.268;2023-07-31T03:40:07;99575.25;;;23.11;77.74
59168;BME280;70412;55.048;73.268;2023-07-31T03:43:11;99571.38;;;22.13;80.55
59168;BME280;70412;55.048;73.268;2023-07-31T03:46:15;99560.84;;;22.92;77.43
59168;BME280;70412;55.048;73.268;2023-07-31T03:49:17;99564.53;;;22.98;78.47
59168;BME280;70412;55.048;73.268;2023-07-31T03:52:22;99563.31;;;22.74;78.22
59168;BME280;70412;55.048;73.268;2023-07-31T03:55:24;99555.38;;;22.26;77.94
59168;BME280;70412;55.048;73.268;2023-07-31T03:58:26;99556.06;;;22.55;78.59
59168;BME280;70412;55.048;73.268;2023-07-31T04:01:29;99551.75;;;22.54;77.95
59168;BME280;70412;55.048;73.268;2023-07-31T04:04:32;99552.47;;;22.15;79.41
59168;BME280;70412;55.048;73.268;2023-07-31T04:07:34;99553.25;;;22.02;77.40
59168;BME280;70412;55.048;73.268;2023-07-31T04:10:39;99562.06;;;23.10;77.13
59168;BME280;70412;55.048;73.268;2023-07-31T04:13:41;99558.72;;;22.41;77.88
59168;BME280;70412;55.048;73.268;2023-07-31T04:16:46;99556.09;;;22.68;76.21
59168;BME280;70412;55.048;73.268;2023-07-31T04:19:49;99554.56;;;23.78;74.24
59168;BME280;70412;55.048;73.268;2023-07-31T04:22:51;99555.88;;;23.55;72.06
59168;BME280;70412;55.048;73.268;2023-07-31T04:25:54;99548.50;;;22.91;73.46
59168;BME280;70412;55.048;73.268;2023-07-31T04:28:56;99553.97;;;24.52;67.87
59168;BME280;70412;55.048;73.268;2023-07-31T04:31:59;99549.78;;;24.31;67.83
59168;BME280;70412;55.048;73.268;2023-07-31T04:35:02;99552.97;;;24.22;67.82
59168;BME280;70412;55.048;73.268;2023-07-31T04:38:04;99537.53;;;25.05;64.97
59168;BME280;70412;55.048;73.268;2023-07-31T04:41:06;99544.31;;;24.83;64.25
59168;BME280;70412;55.048;73.268;2023-07-31T04:44:09;99536.16;;;24.39;64.95
59168;BME280;70412;55.048;73.268;2023-07-31T04:47:13;99550.00;;;24.68;63.03
59168;BME280;70412;55.048;73.268;2023-07-31T04:50:16;99539.06;;;24.63;65.29
59168;BME280;70412;55.048;73.268;2023-07-31T04:53:18;99540.25;;;25.23;65.82
59168;BME280;70412;55.048;73.268;2023-07-31T04:56:21;99557.53;;;25.27;63.28
59168;BME280;70412;55.048;73.268;2023-07-31T04:59:23;99542.75;;;24.68;64.78
59168;BME280;70412;55.048;73.268;2023-07-31T05:02:26;99526.69;;;25.36;64.24
59168;BME280;70412;55.048;73.268;2023-07-31T05:05:28;99539.91;;;25.93;61.19
59168;BME280;70412;55.048;73.268;2023-07-31T05:08:31;99545.25;;;24.32;66.08
59168;BME280;70412;55.048;73.268;2023-07-31T05:11:35;99535.56;;;25.37;60.89
59168;BME280;70412;55.048;73.268;2023-07-31T05:14:38;99544.09;;;25.89;59.05
59168;BME280;70412;55.048;73.268;2023-07-31T05:17:40;99535.88;;;26.32;58.39
59168;BME280;70412;55.048;73.268;2023-07-31T05:20:43;99530.28;;;25.85;57.71
59168;BME280;70412;55.048;73.268;2023-07-31T05:23:45;99529.50;;;25.05;60.88
59168;BME280;70412;55.048;73.268;2023-07-31T05:26:48;99530.28;;;25.49;59.00
59168;BME280;70412;55.048;73.268;2023-07-31T05:29:53;99538.28;;;25.74;57.70
59168;BME280;70412;55.048;73.268;2023-07-31T05:32:55;99533.78;;;25.86;58.35
59168;BME280;70412;55.048;73.268;2023-07-31T05:35:58;99522.47;;;26.74;50.35
59168;BME280;70412;55.048;73.268;2023-07-31T05:39:01;99532.88;;;26.82;55.57
59168;BME280;70412;55.048;73.268;2023-07-31T05:42:10;99533.53;;;26.66;51.85
59168;BME280;70412;55.048;73.268;2023-07-31T05:45:12;99534.28;;;25.21;54.68
59168;BME280;70412;55.048;73.268;2023-07-31T05:48:15;99542.66;;;26.23;51.57
59168;BME280;70412;55.048;73.268;2023-07-31T05:51:17;99529.47;;;27.22;49.82
59168;BME280;70412;55.048;73.268;2023-07-31T05:54:20;99523.59;;;28.12;48.94
59168;BME280;70412;55.048;73.268;2023-07-31T05:57:22;99530.81;;;27.83;49.21
59168;BME280;70412;55.048;73.268;2023-07-31T06:00:25;99525.25;;;27.02;52.46
59168;BME280;70412;55.048;73.268;2023-07-31T06:03:27;99529.69;;;24.78;55.37
59168;BME280;70412;55.048;73.268;2023-07-31T06:06:30;99518.38;;;25.20;53.65
59168;BME280;70412;55.048;73.268;2023-07-31T06:09:32;99506.66;;;25.39;55.52
59168;BME280;70412;55.048;73.268;2023-07-31T06:12:35;99523.88;;;25.50;54.13
59168;BME280;70412;55.048;73.268;2023-07-31T06:15:37;99520.03;;;24.77;56.04
59168;BME280;70412;55.048;73.268;2023-07-31T06:18:40;99516.47;;;24.21;59.02
59168;BME280;70412;55.048;73.268;2023-07-31T06:21:42;99525.91;;;24.30;57.33
59168;BME280;70412;55.048;73.268;2023-07-31T06:24:46;99507.56;;;24.58;56.19
59168;BME280;70412;55.048;73.268;2023-07-31T06:27:48;99501.50;;;24.69;57.16
59168;BME280;70412;55.048;73.268;2023-07-31T06:30:51;99519.72;;;24.86;54.66
59168;BME280;70412;55.048;73.268;2023-07-31T06:33:53;99515.00;;;24.56;57.47
59168;BME280;70412;55.048;73.268;2023-07-31T06:36:56;99510.97;;;24.97;55.21
59168;BME280;70412;55.048;73.268;2023-07-31T06:39:59;99499.03;;;25.36;55.76
59168;BME280;70412;55.048;73.268;2023-07-31T06:43:01;99504.22;;;25.37;57.06
59168;BME280;70412;55.048;73.268;2023-07-31T06:46:09;99488.34;;;25.29;55.70
59168;BME280;70412;55.048;73.268;2023-07-31T06:49:13;99499.53;;;25.26;53.79
59168;BME280;70412;55.048;73.268;2023-07-31T06:52:17;99499.22;;;24.66;56.34
59168;BME280;70412;55.048;73.268;2023-07-31T06:55:20;99498.50;;;24.53;57.91
59168;BME280;70412;55.048;73.268;2023-07-31T06:58:23;99506.44;;;23.51;64.87
59168;BME280;70412;55.048;73.268;2023-07-31T07:01:26;99502.25;;;23.75;63.91
59168;BME280;70412;55.048;73.268;2023-07-31T07:04:29;99499.47;;;23.95;70.20
59168;BME280;70412;55.048;73.268;2023-07-31T07:07:41;99510.94;;;23.71;72.38
59168;BME280;70412;55.048;73.268;2023-07-31T07:10:44;99505.72;;;23.82;73.60
59168;BME280;70412;55.048;73.268;2023-07-31T07:13:59;99512.47;;;23.92;72.72
59168;BME280;70412;55.048;73.268;2023-07-31T07:17:02;99479.19;;;23.74;73.49
59168;BME280;70412;55.048;73.268;2023-07-31T07:20:07;99507.75;;;23.29;73.15
59168;BME280;70412;55.048;73.268;2023-07-31T07:23:10;99500.38;;;23.05;72.89
59168;BME280;70412;55.048;73.268;2023-07-31T07:26:12;99497.91;;;22.90;68.48
59168;BME280;70412;55.048;73.268;2023-07-31T07:29:16;99508.59;;;22.83;65.92
59168;BME280;70412;55.048;73.268;2023-07-31T07:32:18;99498.75;;;22.70;68.74
59168;BME280;70412;55.048;73.268;2023-07-31T07:35:21;99512.41;;;22.15;73.46
59168;BME280;70412;55.048;73.268;2023-07-31T07:38:24;99490.41;;;21.58;80.66
59168;BME280;70412;55.048;73.268;2023-07-31T07:41:27;99509.56;;;21.68;81.80
59168;BME280;70412;55.048;73.268;2023-07-31T07:44:30;99507.84;;;21.54;88.16
59168;BME280;70412;55.048;73.268;2023-07-31T07:47:32;99509.59;;;22.42;80.43
59168;BME280;70412;55.048;73.268;2023-07-31T07:50:38;99506.94;;;23.09;74.17
59168;BME280;70412;55.048;73.268;2023-07-31T07:53:41;99496.38;;;24.05;69.31
59168;BME280;70412;55.048;73.268;2023-07-31T07:56:43;99494.59;;;23.79;64.00
59168;BME280;70412;55.048;73.268;2023-07-31T07:59:46;99485.94;;;23.83;70.30
59168;BME280;70412;55.048;73.268;2023-07-31T08:02:48;99475.38;;;24.58;64.72
59168;BME280;70412;55.048;73.268;2023-07-31T08:05:51;99467.38;;;24.52;62.65
59168;BME280;70412;55.048;73.268;2023-07-31T08:08:54;99474.13;;;24.61;65.46
59168;BME280;70412;55.048;73.268;2023-07-31T08:11:56;99473.19;;;24.17;64.58
59168;BME280;70412;55.048;73.268;2023-07-31T08:15:04;99476.47;;;24.26;65.67
59168;BME280;70412;55.048;73.268;2023-07-31T08:18:06;99464.75;;;24.20;74.14
59168;BME280;70412;55.048;73.268;2023-07-31T08:21:09;99476.97;;;24.09;64.80
59168;BME280;70412;55.048;73.268;2023-07-31T08:24:12;99459.63;;;24.12;61.29
59168;BME280;70412;55.048;73.268;2023-07-31T08:27:17;99464.94;;;25.18;62.94
59168;BME280;70412;55.048;73.268;2023-07-31T08:30:19;99462.06;;;24.20;64.06
59168;BME280;70412;55.048;73.268;2023-07-31T08:33:21;99429.50;;;24.73;63.09
59168;BME280;70412;55.048;73.268;2023-07-31T08:36:24;99452.56;;;24.99;61.28
59168;BME280;70412;55.048;73.268;2023-07-31T08:39:27;99458.38;;;25.14;57.81
59168;BME280;70412;55.048;73.268;2023-07-31T08:42:29;99446.31;;;25.05;51.59
59168;BME280;70412;55.048;73.268;2023-07-31T08:45:32;99452.06;;;25.63;57.01
59168;BME280;70412;55.048;73.268;2023-07-31T08:48:35;99428.13;;;25.25;50.06
59168;BME280;70412;55.048;73.268;2023-07-31T08:51:40;99444.72;;;25.34;54.16
59168;BME280;70412;55.048;73.268;2023-07-31T08:54:44;99454.78;;;25.20;50.96
59168;BME280;70412;55.048;73.268;2023-07-31T08:57:46;99439.75;;;25.19;50.04
59168;BME280;70412;55.048;73.268;2023-07-31T09:00:51;99445.28;;;26.33;48.78
59168;BME280;70412;55.048;73.268;2023-07-31T09:03:54;99449.22;;;26.07;52.37
59168;BME280;70412;55.048;73.268;2023-07-31T09:07:00;99446.16;;;27.15;52.12
59168;BME280;70412;55.048;73.268;2023-07-31T09:10:05;99442.59;;;25.61;47.80
59168;BME280;70412;55.048;73.268;2023-07-31T09:13:08;99432.25;;;26.60;48.18
59168;BME280;70412;55.048;73.268;2023-07-31T09:16:11;99443.97;;;26.12;46.76
59168;BME280;70412;55.048;73.268;2023-07-31T09:19:29;99447.03;;;25.97;46.95
59168;BME280;70412;55.048;73.268;2023-07-31T09:22:32;99443.81;;;26.48;45.77
59168;BME280;70412;55.048;73.268;2023-07-31T09:25:36;99448.72;;;27.22;41.88
59168;BME280;70412;55.048;73.268;2023-07-31T09:28:38;99431.09;;;26.55;44.71
59168;BME280;70412;55.048;73.268;2023-07-31T09:31:43;99427.00;;;26.88;42.99
59168;BME280;70412;55.048;73.268;2023-07-31T09:34:45;99428.81;;;26.29;45.42
59168;BME280;70412;55.048;73.268;2023-07-31T09:37:50;99419.47;;;26.32;47.34
59168;BME280;70412;55.048;73.268;2023-07-31T09:40:52;99412.47;;;26.42;46.50
59168;BME280;70412;55.048;73.268;2023-07-31T09:43:55;99414.81;;;27.09;44.83
59168;BME280;70412;55.048;73.268;2023-07-31T09:46:58;99420.94;;;26.16;49.37
59168;BME280;70412;55.048;73.268;2023-07-31T09:50:00;99415.53;;;26.04;48.26
59168;BME280;70412;55.048;73.268;2023-07-31T09:53:03;99419.38;;;25.66;48.75
59168;BME280;70412;55.048;73.268;2023-07-31T09:56:05;99424.25;;;26.30;47.86
59168;BME280;70412;55.048;73.268;2023-07-31T09:59:11;99419.44;;;26.20;48.44
59168;BME280;70412;55.048;73.268;2023-07-31T10:02:17;99419.94;;;25.57;46.39
59168;BME280;70412;55.048;73.268;2023-07-31T10:05:22;99424.53;;;25.50;50.40
59168;BME280;70412;55.048;73.268;2023-07-31T10:08:30;99428.13;;;25.44;51.12
59168;BME280;70412;55.048;73.268;2023-07-31T10:11:38;99424.53;;;24.95;53.08
59168;BME280;70412;55.048;73.268;2023-07-31T10:14:43;99429.09;;;24.69;54.12
59168;BME280;70412;55.048;73.268;2023-07-31T10:17:50;99430.34;;;24.67;54.31
59168;BME280;70412;55.048;73.268;2023-07-31T10:20:54;99434.66;;;24.93;53.52
59168;BME280;70412;55.048;73.268;2023-07-31T10:24:05;99419.28;;;25.73;51.11
59168;BME280;70412;55.048;73.268;2023-07-31T10:27:08;99435.16;;;25.45;50.20
59168;BME280;70412;55.048;73.268;2023-07-31T10:30:17;99439.97;;;26.56;48.99
59168;BME280;70412;55.048;73.268;2023-07-31T10:33:20;99435.41;;;27.03;49.31
59168;BME280;70412;55.048;73.268;2023-07-31T10:36:23;99430.63;;;28.14;46.36
59168;BME280;70412;55.048;73.268;2023-07-31T10:39:36;99419.63;;;27.87;45.55
59168;BME280;70412;55.048;73.268;2023-07-31T10:42:54;99427.38;;;28.12;46.36
59168;BME280;70412;55.048;73.268;2023-07-31T10:45:57;99425.41;;;28.24;45.05
59168;BME280;70412;55.048;73.268;2023-07-31T10:49:01;99419.38;;;27.60;45.45
59168;BME280;70412;55.048;73.268;2023-07-31T10:52:04;99437.88;;;26.81;46.55
59168;BME280;70412;55.048;73.268;2023-07-31T10:58:34;99427.47;;;27.89;45.30
59168;BME280;70412;55.048;73.268;2023-07-31T11:01:56;99428.34;;;28.06;46.18
59168;BME280;70412;55.048;73.268;2023-07-31T11:05:09;99428.97;;;27.96;45.42
59168;BME280;70412;55.048;73.268;2023-07-31T11:08:18;99427.94;;;27.57;45.12
59168;BME280;70412;55.048;73.268;2023-07-31T11:11:22;99433.06;;;27.99;44.93
59168;BME280;70412;55.048;73.268;2023-07-31T11:14:29;99429.38;;;27.48;43.15
59168;BME280;70412;55.048;73.268;2023-07-31T11:17:32;99430.03;;;29.13;44.52
59168;BME280;70412;55.048;73.268;2023-07-31T11:20:36;99430.59;;;29.15;42.35
59168;BME280;70412;55.048;73.268;2023-07-31T11:23:39;99431.84;;;27.90;42.82
59168;BME280;70412;55.048;73.268;2023-07-31T11:26:53;99433.75;;;27.02;44.95
59168;BME280;70412;55.048;73.268;2023-07-31T11:30:03;99430.31;;;28.44;42.81
59168;BME280;70412;55.048;73.268;2023-07-31T11:33:06;99413.25;;;29.11;42.92
59168;BME280;70412;55.048;73.268;2023-07-31T11:36:19;99423.50;;;28.92;40.89
59168;BME280;70412;55.048;73.268;2023-07-31T11:39:22;99427.22;;;28.52;39.47
59168;BME280;70412;55.048;73.268;2023-07-31T11:42:24;99421.97;;;28.79;39.90
59168;BME280;70412;55.048;73.268;2023-07-31T11:45:27;99421.41;;;29.16;39.18
59168;BME280;70412;55.048;73.268;2023-07-31T11:48:32;99425.81;;;29.22;37.53
59168;BME280;70412;55.048;73.268;2023-07-31T11:51:38;99412.13;;;29.07;36.67
59168;BME280;70412;55.048;73.268;2023-07-31T11:54:41;99419.91;;;29.69;38.62
59168;BME280;70412;55.048;73.268;2023-07-31T11:57:43;99405.97;;;30.09;35.43
59168;BME280;70412;55.048;73.268;2023-07-31T12:00:48;99409.88;;;28.31;37.02
59168;BME280;70412;55.048;73.268;2023-07-31T12:03:54;99386.41;;;31.18;36.38
59168;BME280;70412;55.048;73.268;2023-07-31T12:06:56;99400.13;;;27.97;38.71
59168;BME280;70412;55.048;73.268;2023-07-31T12:10:03;99393.03;;;30.16;35.51
59168;BME280;70412;55.048;73.268;2023-07-31T12:13:10;99394.03;;;28.18;36.97
59168;BME280;70412;55.048;73.268;2023-07-31T12:16:15;99402.00;;;27.68;39.27
59168;BME280;70412;55.048;73.268;2023-07-31T12:19:19;99411.31;;;26.85;41.65
59168;BME280;70412;55.048;73.268;2023-07-31T12:22:22;99407.97;;;26.13;44.27
59168;BME280;70412;55.048;73.268;2023-07-31T12:25:29;99403.47;;;25.65;46.91
59168;BME280;70412;55.048;73.268;2023-07-31T12:31:44;99415.22;;;25.16;47.50
59168;BME280;70412;55.048;73.268;2023-07-31T12:34:47;99414.16;;;25.17;48.23
59168;BME280;70412;55.048;73.268;2023-07-31T12:37:50;99411.81;;;25.45;48.99
59168;BME280;70412;55.048;73.268;2023-07-31T12:40:54;99421.63;;;25.51;47.80
59168;BME280;70412;55.048;73.268;2023-07-31T12:43:56;99426.56;;;25.54;44.44
59168;BME280;70412;55.048;73.268;2023-07-31T12:46:59;99417.22;;;26.05;44.86
59168;BME280;70412;55.048;73.268;2023-07-31T12:50:02;99420.09;;;26.04;46.02
59168;BME280;70412;55.048;73.268;2023-07-31T12:53:05;99409.31;;;25.92;46.80
59168;BME280;70412;55.048;73.268;2023-07-31T12:56:08;99429.97;;;26.33;46.35
59168;BME280;70412;55.048;73.268;2023-07-31T12:59:10;99420.91;;;26.04;46.54
59168;BME280;70412;55.048;73.268;2023-07-31T13:02:12;99429.13;;;25.79;47.50
59168;BME280;70412;55.048;73.268;2023-07-31T13:05:15;99430.25;;;25.72;47.87
59168;BME280;70412;55.048;73.268;2023-07-31T13:08:17;99437.88;;;25.20;52.34
59168;BME280;70412;55.048;73.268;2023-07-31T13:11:20;99436.81;;;24.84;56.02
59168;BME280;70412;55.048;73.268;2023-07-31T13:14:22;99420.66;;;25.27;55.68
59168;BME280;70412;55.048;73.268;2023-07-31T13:17:25;99424.44;;;25.01;57.04
59168;BME280;70412;55.048;73.268;2023-07-31T13:20:28;99442.50;;;24.69;58.40
59168;BME280;70412;55.048;73.268;2023-07-31T13:23:30;99446.38;;;24.48;60.36
59168;BME280;70412;55.048;73.268;2023-07-31T13:26:33;99422.84;;;24.50;60.49
59168;BME280;70412;55.048;73.268;2023-07-31T13:29:37;99441.03;;;24.24;60.88
59168;BME280;70412;55.048;73.268;2023-07-31T13:32:39;99419.69;;;24.10;61.34
59168;BME280;70412;55.048;73.268;2023-07-31T13:35:46;99438.66;;;24.02;63.22
59168;BME280;70412;55.048;73.268;2023-07-31T13:38:50;99447.03;;;23.81;64.68
59168;BME280;70412;55.048;73.268;2023-07-31T13:41:53;99441.38;;;23.57;64.20
59168;BME280;70412;55.048;73.268;2023-07-31T13:44:56;99459.09;;;23.58;64.61
59168;BME280;70412;55.048;73.268;2023-07-31T13:47:59;99449.66;;;23.43;65.81
59168;BME280;70412;55.048;73.268;2023-07-31T13:51:02;99450.09;;;23.33;65.97
59168;BME280;70412;55.048;73.268;2023-07-31T13:54:04;99456.72;;;23.24;66.30
59168;BME280;70412;55.048;73.268;2023-07-31T13:57:08;99463.72;;;23.12;66.43
59168;BME280;70412;55.048;73.268;2023-07-31T14:00:11;99448.72;;;23.04;66.90
59168;BME280;70412;55.048;73.268;2023-07-31T14:03:14;99458.03;;;22.88;67.67
59168;BME280;70412;55.048;73.268;2023-07-31T14:06:16;99442.41;;;22.72;68.81
59168;BME280;70412;55.048;73.268;2023-07-31T14:09:19;99459.28;;;22.73;68.81
59168;BME280;70412;55.048;73.268;2023-07-31T14:12:21;99451.84;;;22.68;68.90
59168;BME280;70412;55.048;73.268;2023-07-31T14:15:24;99464.00;;;22.77;69.59
59168;BME280;70412;55.048;73.268;2023-07-31T14:18:27;99461.09;;;22.46;70.52
59168;BME280;70412;55.048;73.268;2023-07-31T14:21:30;99464.81;;;22.71;68.56
59168;BME280;70412;55.048;73.268;2023-07-31T14:24:33;99468.06;;;22.47;71.36
59168;BME280;70412;55.048;73.268;2023-07-31T14:27:36;99487.56;;;22.34;72.23
59168;BME280;70412;55.048;73.268;2023-07-31T14:30:39;99459.19;;;22.13;73.38
59168;BME280;70412;55.048;73.268;2023-07-31T14:33:42;99475.88;;;22.28;72.97
59168;BME280;70412;55.048;73.268;2023-07-31T14:36:44;99478.88;;;21.99;75.65
59168;BME280;70412;55.048;73.268;2023-07-31T14:39:48;99464.41;;;21.73;77.62
59168;BME280;70412;55.048;73.268;2023-07-31T14:42:51;99477.97;;;21.72;77.30
59168;BME280;70412;55.048;73.268;2023-07-31T14:45:54;99480.63;;;21.78;75.91
59168;BME280;70412;55.048;73.268;2023-07-31T14:48:59;99471.97;;;21.63;77.45
59168;BME280;70412;55.048;73.268;2023-07-31T14:52:02;99472.78;;;21.57;77.92
59168;BME280;70412;55.048;73.268;2023-07-31T14:55:05;99467.25;;;21.65;77.34
59168;BME280;70412;55.048;73.268;2023-07-31T14:58:07;99475.84;;;21.54;78.22
59168;BME280;70412;55.048;73.268;2023-07-31T15:01:12;99484.25;;;21.51;78.48
59168;BME280;70412;55.048;73.268;2023-07-31T15:04:14;99503.75;;;21.58;78.41
59168;BME280;70412;55.048;73.268;2023-07-31T15:07:16;99498.44;;;21.58;77.28
59168;BME280;70412;55.048;73.268;2023-07-31T15:10:19;99485.97;;;21.31;78.73
59168;BME280;70412;55.048;73.268;2023-07-31T15:13:21;99508.28;;;20.95;80.37
59168;BME280;70412;55.048;73.268;2023-07-31T15:16:23;99518.75;;;20.69;82.00
59168;BME280;70412;55.048;73.268;2023-07-31T15:19:28;99514.50;;;20.53;81.67
59168;BME280;70412;55.048;73.268;2023-07-31T15:22:31;99504.94;;;20.37;81.84
59168;BME280;70412;55.048;73.268;2023-07-31T15:25:34;99526.66;;;20.41;81.23
59168;BME280;70412;55.048;73.268;2023-07-31T15:28:36;99553.88;;;20.36;81.22
59168;BME280;70412;55.048;73.268;2023-07-31T15:31:41;99571.81;;;20.13;83.26
59168;BME280;70412;55.048;73.268;2023-07-31T15:34:43;99565.03;;;20.10;82.79
59168;BME280;70412;55.048;73.268;2023-07-31T15:37:46;99583.75;;;20.17;83.07
59168;BME280;70412;55.048;73.268;2023-07-31T15:40:48;99582.81;;;20.10;82.94
59168;BME280;70412;55.048;73.268;2023-07-31T15:43:51;99581.53;;;19.32;80.95
59168;BME280;70412;55.048;73.268;2023-07-31T15:46:58;99555.94;;;19.01;79.40
59168;BME280;70412;55.048;73.268;2023-07-31T15:50:00;99560.34;;;19.24;80.70
59168;BME280;70412;55.048;73.268;2023-07-31T15:53:03;99559.09;;;19.79;81.14
59168;BME280;70412;55.048;73.268;2023-07-31T15:56:06;99556.03;;;19.96;79.65
59168;BME280;70412;55.048;73.268;2023-07-31T15:59:08;99550.31;;;19.49;84.84
59168;BME280;70412;55.048;73.268;2023-07-31T16:02:11;99522.31;;;19.23;87.87
59168;BME280;70412;55.048;73.268;2023-07-31T16:05:13;99522.69;;;19.20;88.71
59168;BME280;70412;55.048;73.268;2023-07-31T16:08:16;99514.13;;;19.10;90.89
59168;BME280;70412;55.048;73.268;2023-07-31T16:11:18;99510.53;;;18.88;93.86
59168;BME280;70412;55.048;73.268;2023-07-31T16:14:23;99490.75;;;18.91;93.81
59168;BME280;70412;55.048;73.268;2023-07-31T16:17:26;99493.41;;;18.91;95.95
59168;BME280;70412;55.048;73.268;2023-07-31T16:20:28;99488.97;;;18.68;99.29